Time;durP1;ratioP1;P1;durP2;ratioP2;P2;SDS_P1;SDS_P2;PMS_P1;PMS_P2;Temp;Humidity;BMP_temperature;BMP_pressure;BME280_temperature;BME280_humidity;BME280_pressure;Samples;Min_cycle;Max_cycle;Signal;HPM_P1;HPM_P2
2022/09/22 00:01:10;;;;;;;8.35;6.53;;;;;;;12.17;81.43;99135.69;1626044;86;20930;-68
2022/09/22 00:03:41;;;;;;;6.17;5.67;;;;;;;12.18;81.50;99131.98;1606186;87;21260;-69
2022/09/22 00:06:21;;;;;;;5.17;4.78;;;;;;;12.16;81.47;99129.52;1601116;88;21018;-70
2022/09/22 00:08:51;;;;;;;5.67;4.10;;;;;;;12.14;81.48;99136.89;1599029;88;21027;-69
2022/09/22 00:11:22;;;;;;;4.35;3.95;;;;;;;12.12;81.53;99128.23;1594602;88;21540;-69
2022/09/22 00:13:52;;;;;;;3.50;3.20;;;;;;;12.15;81.71;99137.72;1604774;88;21524;-69
2022/09/22 00:16:24;;;;;;;3.40;3.10;;;;;;;12.17;81.71;99135.19;1596841;88;21160;-69
2022/09/22 00:18:51;;;;;;;3.50;3.20;;;;;;;12.20;81.70;99129.98;1601081;88;21541;-69
2022/09/22 00:21:19;;;;;;;4.25;3.92;;;;;;;12.22;81.68;99127.44;1608141;87;21402;-70
2022/09/22 00:23:46;;;;;;;3.83;3.52;;;;;;;12.22;81.65;99125.28;1578835;89;21564;-69
2022/09/22 00:26:17;;;;;;;3.70;3.40;;;;;;;12.23;81.64;99124.24;1586812;89;21010;-69
2022/09/22 00:28:46;;;;;;;3.70;3.35;;;;;;;12.24;81.71;99129.41;1577913;90;21282;-69
2022/09/22 00:31:16;;;;;;;5.15;4.75;;;;;;;12.26;81.73;99134.03;1590699;89;21029;-69
2022/09/22 00:33:45;;;;;;;7.42;6.83;;;;;;;12.26;81.69;99134.03;1586007;89;20969;-69
2022/09/22 00:36:12;;;;;;;8.30;7.60;;;;;;;12.26;81.69;99133.20;1589747;88;21550;-69
2022/09/22 00:38:39;;;;;;;8.58;7.92;;;;;;;12.27;81.66;99133.03;1585377;89;20995;-70
2022/09/22 00:41:10;;;;;;;9.78;8.98;;;;;;;12.29;81.67;99131.00;1581926;89;22590;-69
2022/09/22 00:43:38;;;;;;;10.65;9.75;;;;;;;12.30;81.63;99133.99;1597950;88;21114;-69
2022/09/22 00:46:16;;;;;;;8.65;7.90;;;;;;;12.30;81.43;99126.49;1583166;89;20945;-70
2022/09/22 00:48:47;;;;;;;7.92;7.12;;;;;;;12.31;81.41;99128.12;1582692;89;21511;-69
2022/09/22 00:51:15;;;;;;;6.22;5.72;;;;;;;12.29;81.35;99122.99;1588115;89;20932;-69
2022/09/22 00:53:42;;;;;;;5.28;4.78;;;;;;;12.30;81.45;99132.66;1584594;88;21203;-68
2022/09/22 00:56:16;;;;;;;4.90;4.50;;;;;;;12.29;81.42;99124.83;1582900;89;21091;-68
2022/09/22 00:58:47;;;;;;;4.12;3.83;;;;;;;12.30;81.53;99129.99;1582085;89;21474;-70
2022/09/22 01:01:14;;;;;;;4.30;3.90;;;;;;;12.32;81.47;99131.95;1586216;88;20984;-69
2022/09/22 01:03:42;;;;;;;4.40;4.03;;;;;;;12.28;81.44;99130.66;1585659;89;20983;-69
2022/09/22 01:06:12;;;;;;;3.47;3.17;;;;;;;12.31;81.57;99128.12;1623629;87;21261;-70
2022/09/22 01:08:39;;;;;;;3.08;2.77;;;;;;;12.30;81.55;99117.16;1613910;87;21026;-68
2022/09/22 01:11:06;;;;;;;2.62;2.42;;;;;;;12.28;81.49;99128.50;1583721;88;21039;-68
2022/09/22 01:14:10;;;;;;;2.22;2.10;;;;;;;12.28;81.59;99125.33;1612267;87;20909;-68
2022/09/22 01:17:08;;;;;;;2.30;2.10;;;;;;;12.28;81.66;99125.33;1582868;89;21177;-69
2022/09/22 01:20:06;;;;;;;5.30;2.30;;;;;;;12.30;81.81;99131.83;1621646;85;21158;-68
2022/09/22 01:23:14;;;;;;;2.40;2.20;;;;;;;12.29;81.78;99122.16;1647479;85;21456;-70
2022/09/22 01:26:16;;;;;;;2.87;2.67;;;;;;;12.26;81.74;99119.37;1646905;85;21043;-69
2022/09/22 01:29:01;;;;;;;3.15;2.33;;;;;;;12.22;81.88;99114.11;1656107;85;20936;-69
2022/09/22 01:31:42;;;;;;;2.60;2.40;;;;;;;12.21;81.96;99110.28;1651746;85;21037;-68
2022/09/22 01:34:41;;;;;;;3.30;3.05;;;;;;;12.22;82.06;99111.44;1639056;85;21196;-69
2022/09/22 01:37:34;;;;;;;2.67;2.47;;;;;;;12.23;82.17;99106.91;1652181;85;21024;-68
2022/09/22 01:40:17;;;;;;;2.62;2.40;;;;;;;12.24;82.08;99110.73;1642173;85;21023;-70
2022/09/22 01:42:52;;;;;;;2.87;2.27;;;;;;;12.22;82.17;99114.11;1640383;85;20907;-69
2022/09/22 01:45:22;;;;;;;3.25;2.45;;;;;;;12.22;82.28;99114.11;1646517;85;20922;-69
2022/09/22 01:47:58;;;;;;;2.70;2.30;;;;;;;12.26;82.27;99118.53;1649094;85;21322;-69
2022/09/22 01:50:33;;;;;;;2.87;2.65;;;;;;;12.28;82.21;99116.50;1647994;85;21058;-69
2022/09/22 01:53:05;;;;;;;3.02;2.72;;;;;;;12.26;82.11;99111.36;1617881;87;20956;-69
2022/09/22 01:55:37;;;;;;;3.37;2.67;;;;;;;12.26;82.10;99107.37;1646558;85;21011;-68
2022/09/22 01:58:16;;;;;;;3.20;2.62;;;;;;;12.25;82.14;99115.57;1656112;85;21029;-69
2022/09/22 02:00:48;;;;;;;3.70;3.40;;;;;;;12.24;82.28;99118.73;1648198;85;21279;-69
2022/09/22 02:03:28;;;;;;;3.70;3.45;;;;;;;12.24;82.35;99116.07;1648701;85;21003;-67
2022/09/22 02:06:09;;;;;;;3.77;3.47;;;;;;;12.25;82.33;99116.91;1613049;85;20962;-69
2022/09/22 02:08:49;;;;;;;5.92;3.60;;;;;;;12.27;82.36;99118.86;1638137;85;21399;-69
2022/09/22 02:11:15;;;;;;;4.50;4.20;;;;;;;12.29;82.37;99122.16;1625699;85;20956;-68
2022/09/22 02:13:42;;;;;;;4.90;4.50;;;;;;;12.29;82.36;99125.66;1646550;85;21169;-69
2022/09/22 02:16:11;;;;;;;5.80;5.40;;;;;;;12.30;82.36;99121.16;1651339;85;21160;-69
2022/09/22 02:19:02;;;;;;;6.20;5.70;;;;;;;12.31;82.35;99120.12;1652940;85;21540;-67
2022/09/22 02:21:28;;;;;;;8.95;6.35;;;;;;;12.34;82.31;99117.08;1635219;86;21052;-70
2022/09/22 02:23:55;;;;;;;7.97;7.35;;;;;;;12.34;82.26;99117.08;1629302;86;21452;-68
2022/09/22 02:26:25;;;;;;;8.38;7.58;;;;;;;12.33;82.21;99124.25;1632097;86;21133;-68
2022/09/22 02:28:55;;;;;;;9.55;8.75;;;;;;;12.33;82.23;99117.58;1633782;86;20926;-70
2022/09/22 02:31:22;;;;;;;10.30;9.28;;;;;;;12.33;82.29;99124.25;1637037;86;20915;-67
2022/09/22 02:33:49;;;;;;;9.03;8.25;;;;;;;12.34;82.30;99123.25;1630086;86;21051;-69
2022/09/22 02:36:43;;;;;;;9.45;8.65;;;;;;;12.33;82.26;99130.92;1634834;86;20978;-68
2022/09/22 02:39:42;;;;;;;9.00;8.25;;;;;;;12.35;82.30;99120.91;1637776;86;21193;-69
2022/09/22 02:42:17;;;;;;;8.30;7.58;;;;;;;12.38;82.24;99124.50;1613903;87;20984;-69
2022/09/22 02:45:01;;;;;;;6.53;5.92;;;;;;;12.36;82.14;99127.88;1576156;87;21025;-69
2022/09/22 02:47:51;;;;;;;6.20;5.60;;;;;;;12.35;82.21;99120.91;1609808;87;21527;-70
2022/09/22 02:50:19;;;;;;;5.60;5.10;;;;;;;12.36;82.38;99123.87;1605604;87;21697;-67
2022/09/22 02:52:45;;;;;;;5.03;4.60;;;;;;;12.41;82.42;99125.16;1631084;86;21871;-68
2022/09/22 02:55:12;;;;;;;4.30;4.00;;;;;;;12.42;82.38;99126.30;1630195;86;20983;-69
2022/09/22 02:57:39;;;;;;;5.90;3.20;;;;;;;12.44;82.39;99128.77;1631999;86;20971;-69
2022/09/22 03:00:07;;;;;;;3.50;3.20;;;;;;;12.46;82.37;99126.75;1616898;87;21022;-68
2022/09/22 03:02:34;;;;;;;3.72;3.22;;;;;;;12.45;82.25;99129.09;1623624;86;21111;-69
2022/09/22 03:05:01;;;;;;;2.87;2.67;;;;;;;12.44;82.20;99136.27;1624018;86;21178;-69
2022/09/22 03:07:28;;;;;;;3.87;3.58;;;;;;;12.40;82.19;99129.67;1611071;87;20976;-69
2022/09/22 03:09:55;;;;;;;3.80;3.50;;;;;;;12.39;82.24;99128.84;1627542;86;20979;-68
2022/09/22 03:12:22;;;;;;;3.20;3.00;;;;;;;12.39;82.16;99139.50;1628804;86;20964;-69
2022/09/22 03:14:49;;;;;;;3.40;3.10;;;;;;;12.39;82.13;99136.84;1634661;86;20980;-68
2022/09/22 03:17:16;;;;;;;4.65;3.35;;;;;;;12.41;82.08;99139.84;1629478;86;21182;-68
2022/09/22 03:19:42;;;;;;;3.62;3.33;;;;;;;12.39;81.93;99144.84;1621934;86;20913;-69
2022/09/22 03:22:09;;;;;;;3.15;2.70;;;;;;;12.38;81.79;99135.70;1622399;86;21586;-69
2022/09/22 03:24:35;;;;;;;3.20;2.50;;;;;;;12.37;81.70;99135.38;1623002;86;21034;-68
2022/09/22 03:27:02;;;;;;;3.08;2.87;;;;;;;12.32;81.53;99131.13;1629966;86;20950;-68
2022/09/22 03:29:29;;;;;;;2.77;2.58;;;;;;;12.28;81.60;99136.50;1632094;85;21791;-68
2022/09/22 03:31:55;;;;;;;3.25;3.05;;;;;;;12.24;81.61;99134.73;1651065;85;21019;-68
2022/09/22 03:34:22;;;;;;;2.85;2.65;;;;;;;12.21;81.70;99135.11;1645015;85;21518;-69
2022/09/22 03:36:49;;;;;;;3.35;3.00;;;;;;;12.23;81.78;99138.41;1595171;87;20995;-69
2022/09/22 03:39:17;;;;;;;3.25;2.62;;;;;;;12.23;81.75;99134.41;1642068;85;21054;-69
2022/09/22 03:41:45;;;;;;;2.67;2.47;;;;;;;12.19;81.61;99129.15;1634000;86;21858;-68
2022/09/22 03:44:12;;;;;;;2.80;2.60;;;;;;;12.18;81.59;99134.16;1623786;86;21060;-67
2022/09/22 03:46:38;;;;;;;2.45;2.27;;;;;;;12.18;81.70;99138.66;1630942;86;21087;-68
2022/09/22 03:49:04;;;;;;;3.22;2.92;;;;;;;12.19;81.75;99131.81;1630567;86;21005;-68
2022/09/22 03:51:33;;;;;;;3.30;3.00;;;;;;;12.19;81.75;99131.81;1631435;86;21033;-68
2022/09/22 03:54:00;;;;;;;3.00;2.80;;;;;;;12.21;81.86;99139.11;1620489;86;21102;-68
2022/09/22 03:56:26;;;;;;;3.02;2.80;;;;;;;12.19;81.92;99136.31;1625899;86;20929;-68
2022/09/22 03:58:53;;;;;;;2.87;2.67;;;;;;;12.19;81.98;99134.48;1624384;86;20942;-67
2022/09/22 04:01:19;;;;;;;2.83;2.62;;;;;;;12.17;81.92;99138.35;1621859;86;20996;-67
2022/09/22 04:03:46;;;;;;;3.12;2.87;;;;;;;12.19;81.98;99141.65;1625371;86;21520;-68
2022/09/22 04:06:13;;;;;;;2.98;2.72;;;;;;;12.19;81.98;99138.48;1629460;86;21174;-68
2022/09/22 04:08:39;;;;;;;3.15;2.85;;;;;;;12.20;81.98;99139.31;1630214;86;20973;-69
2022/09/22 04:11:07;;;;;;;3.27;3.08;;;;;;;12.22;82.06;99137.28;1634552;86;21494;-68
2022/09/22 04:13:34;;;;;;;3.25;3.00;;;;;;;12.20;82.15;99138.78;1620481;86;21095;-68
2022/09/22 04:16:02;;;;;;;4.83;4.25;;;;;;;12.18;82.18;99130.66;1632891;86;21542;-68
2022/09/22 04:18:29;;;;;;;4.35;3.95;;;;;;;12.15;82.27;99138.52;1615955;87;21289;-68
2022/09/22 04:21:00;;;;;;;3.42;3.08;;;;;;;12.16;82.33;99134.85;1608878;87;20927;-68
2022/09/22 04:23:26;;;;;;;3.40;2.95;;;;;;;12.15;82.28;99141.19;1605876;87;20889;-69
2022/09/22 04:25:54;;;;;;;3.08;2.87;;;;;;;12.13;82.26;99137.89;1577178;90;21486;-69
2022/09/22 04:28:21;;;;;;;3.25;2.95;;;;;;;12.13;82.32;99137.06;1592206;88;21016;-70
2022/09/22 04:30:49;;;;;;;3.10;2.90;;;;;;;12.13;82.35;99136.56;1610385;87;21026;-70
2022/09/22 04:33:16;;;;;;;3.52;3.22;;;;;;;12.15;82.44;99129.19;1603276;88;21063;-69
2022/09/22 04:35:42;;;;;;;3.50;3.20;;;;;;;12.16;82.46;99134.85;1619350;87;21481;-68
2022/09/22 04:38:09;;;;;;;3.47;3.17;;;;;;;12.18;82.45;99133.31;1626761;87;20982;-70
2022/09/22 04:40:36;;;;;;;4.03;3.70;;;;;;;12.17;82.43;99129.02;1614745;87;20962;-68
2022/09/22 04:43:03;;;;;;;4.53;4.12;;;;;;;12.18;82.39;99138.16;1615953;87;21434;-69
2022/09/22 04:45:29;;;;;;;4.53;4.12;;;;;;;12.17;82.38;99140.52;1582111;89;20978;-70
2022/09/22 04:47:55;;;;;;;4.08;3.77;;;;;;;12.21;82.35;99142.28;1563499;90;20947;-68
2022/09/22 04:50:22;;;;;;;4.53;4.12;;;;;;;12.21;82.34;99141.78;1594803;89;21030;-69
2022/09/22 04:52:52;;;;;;;4.75;4.42;;;;;;;12.25;82.29;99144.91;1557358;90;21551;-68
2022/09/22 04:55:19;;;;;;;4.25;3.87;;;;;;;12.26;82.23;99147.37;1580712;89;22098;-69
2022/09/22 04:57:52;;;;;;;5.12;3.60;;;;;;;12.27;82.19;99145.03;1589906;88;21124;-69
2022/09/22 05:00:19;;;;;;;5.00;4.58;;;;;;;12.30;82.16;99154.00;1587379;88;21062;-68
2022/09/22 05:02:45;;;;;;;7.58;7.05;;;;;;;12.32;82.00;99149.80;1608444;87;20957;-68
2022/09/22 05:05:12;;;;;;;9.18;8.48;;;;;;;12.33;81.80;99152.26;1622826;87;20971;-69
2022/09/22 05:07:45;;;;;;;10.05;9.35;;;;;;;12.32;81.61;99154.63;1607045;87;21164;-69
2022/09/22 05:10:13;;;;;;;9.75;9.05;;;;;;;12.33;81.52;99154.92;1605022;88;20990;-70
2022/09/22 05:12:41;;;;;;;7.00;6.40;;;;;;;12.36;81.43;99151.89;1559231;90;21115;-70
2022/09/22 05:15:09;;;;;;;5.72;4.30;;;;;;;12.36;81.25;99151.05;1587125;88;21069;-69
2022/09/22 05:17:39;;;;;;;3.95;3.50;;;;;;;12.34;81.15;99145.92;1552949;90;21150;-69
2022/09/22 05:20:06;;;;;;;3.05;2.85;;;;;;;12.31;80.99;99145.46;1571812;85;21196;-69
2022/09/22 05:22:33;;;;;;;3.52;3.22;;;;;;;12.29;80.96;99147.00;1627528;87;20990;-70
2022/09/22 05:25:00;;;;;;;3.27;2.92;;;;;;;12.28;80.84;99140.00;1642198;85;21006;-70
2022/09/22 05:27:26;;;;;;;3.25;2.92;;;;;;;12.30;80.85;99142.50;1646951;85;20954;-70
2022/09/22 05:29:53;;;;;;;3.55;2.87;;;;;;;12.32;80.81;99144.46;1643587;85;21486;-70
2022/09/22 05:32:20;;;;;;;3.15;2.95;;;;;;;12.33;80.73;99144.25;1641945;85;21175;-69
2022/09/22 05:34:46;;;;;;;3.25;2.95;;;;;;;12.36;80.68;99143.05;1646569;85;20872;-68
2022/09/22 05:37:13;;;;;;;3.40;3.15;;;;;;;12.37;80.46;99147.38;1649389;85;21547;-71
2022/09/22 05:39:40;;;;;;;2.90;2.70;;;;;;;12.35;80.39;99146.25;1646323;85;20944;-70
2022/09/22 05:42:07;;;;;;;3.58;3.27;;;;;;;12.35;80.28;99154.25;1652974;85;21070;-70
2022/09/22 05:44:34;;;;;;;2.87;2.67;;;;;;;12.37;80.25;99154.05;1646191;85;21182;-70
2022/09/22 05:47:00;;;;;;;3.42;3.22;;;;;;;12.37;80.14;99159.39;1658404;85;21539;-70
2022/09/22 05:49:27;;;;;;;3.05;2.72;;;;;;;12.39;80.12;99158.69;1646146;85;20939;-70
2022/09/22 05:51:56;;;;;;;6.17;2.90;;;;;;;12.42;80.10;99155.64;1654664;85;21100;-70
2022/09/22 05:54:23;;;;;;;3.08;2.77;;;;;;;12.45;80.14;99163.77;1653057;85;21005;-70
2022/09/22 05:56:50;;;;;;;2.87;2.67;;;;;;;12.51;80.20;99158.52;1654688;85;21342;-68
2022/09/22 05:59:17;;;;;;;3.20;3.00;;;;;;;12.56;79.98;99160.11;1646410;85;20944;-69
2022/09/22 06:01:43;;;;;;;3.20;2.90;;;;;;;12.62;79.81;99159.32;1646391;85;21124;-69
2022/09/22 06:04:09;;;;;;;4.15;2.72;;;;;;;12.67;79.66;99165.45;1646496;85;21019;-68
2022/09/22 06:06:36;;;;;;;3.20;3.00;;;;;;;12.71;79.58;99160.86;1643477;85;21088;-68
2022/09/22 06:09:02;;;;;;;3.87;2.80;;;;;;;12.76;79.43;99167.78;1620116;87;21075;-68
2022/09/22 06:11:29;;;;;;;3.55;3.25;;;;;;;12.80;79.32;99168.23;1627482;87;21124;-68
2022/09/22 06:13:56;;;;;;;3.52;2.67;;;;;;;12.84;79.21;99166.82;1642902;86;20928;-68
2022/09/22 06:16:23;;;;;;;3.10;2.87;;;;;;;12.88;79.14;99171.58;1615823;87;21007;-68
2022/09/22 06:18:50;;;;;;;3.12;2.65;;;;;;;12.93;78.90;99175.03;1643567;85;21052;-68
2022/09/22 06:21:17;;;;;;;3.35;3.15;;;;;;;12.95;78.48;99173.81;1631905;85;21282;-69
2022/09/22 06:23:44;;;;;;;4.80;4.28;;;;;;;12.94;78.21;99165.98;1623426;86;20942;-66
2022/09/22 06:26:13;;;;;;;4.37;4.08;;;;;;;12.92;77.90;99170.70;1620281;86;21653;-69
2022/09/22 06:28:40;;;;;;;4.37;3.60;;;;;;;12.89;77.69;99169.73;1620492;86;21024;-69
2022/09/22 06:31:06;;;;;;;3.37;3.08;;;;;;;12.81;77.59;99173.88;1646250;86;21035;-69
2022/09/22 06:33:34;;;;;;;3.92;3.52;;;;;;;12.77;77.51;99181.96;1611435;87;21247;-68
2022/09/22 06:36:01;;;;;;;3.37;3.05;;;;;;;12.73;77.42;99175.34;1612765;87;20936;-68
2022/09/22 06:38:30;;;;;;;4.70;3.40;;;;;;;12.75;77.51;99181.30;1613429;87;20966;-68
2022/09/22 06:41:03;;;;;;;3.95;3.55;;;;;;;12.76;77.53;99177.13;1610421;87;20907;-68
2022/09/22 06:43:29;;;;;;;4.05;3.05;;;;;;;12.76;77.37;99177.63;1622431;85;21078;-68
2022/09/22 06:45:58;;;;;;;3.08;2.72;;;;;;;12.76;77.52;99179.80;1628725;86;22074;-69
2022/09/22 06:48:25;;;;;;;2.72;2.45;;;;;;;12.79;77.65;99174.08;1633686;85;21488;-68
2022/09/22 06:50:53;;;;;;;2.70;2.50;;;;;;;12.85;77.72;99176.49;1622098;85;21007;-68
2022/09/22 06:53:19;;;;;;;2.75;2.55;;;;;;;12.94;77.67;99175.33;1644894;86;21039;-68
2022/09/22 06:55:46;;;;;;;2.85;2.52;;;;;;;13.00;77.35;99170.56;1611606;87;21637;-67
2022/09/22 06:58:14;;;;;;;2.55;2.35;;;;;;;13.03;77.04;99172.84;1634202;85;21283;-68
2022/09/22 07:00:42;;;;;;;4.00;2.70;;;;;;;13.08;77.02;99174.97;1618797;86;20991;-68
2022/09/22 07:03:21;;;;;;;3.52;3.00;;;;;;;13.18;76.95;99175.45;1628807;86;21004;-68
2022/09/22 07:05:59;;;;;;;3.42;2.92;;;;;;;13.25;76.73;99181.16;1613436;87;21023;-70
2022/09/22 07:08:28;;;;;;;3.40;3.10;;;;;;;13.27;76.33;99183.65;1615409;87;20952;-69
2022/09/22 07:11:03;;;;;;;3.37;3.17;;;;;;;13.27;76.06;99191.66;1611172;87;20881;-67
2022/09/22 07:13:30;;;;;;;4.22;3.65;;;;;;;13.25;75.74;99193.67;1608929;86;20990;-68
2022/09/22 07:16:07;;;;;;;4.25;3.52;;;;;;;13.20;75.59;99194.27;1604598;87;20921;-68
2022/09/22 07:18:34;;;;;;;5.62;3.12;;;;;;;13.24;75.56;99201.39;1605307;87;21558;-68
2022/09/22 07:21:06;;;;;;;4.53;2.98;;;;;;;13.31;75.31;99204.93;1614189;86;21095;-68
2022/09/22 07:23:35;;;;;;;2.92;2.72;;;;;;;13.32;74.98;99207.40;1599886;88;21660;-69
2022/09/22 07:26:04;;;;;;;2.98;2.75;;;;;;;13.31;74.79;99211.11;1597968;88;21029;-69
2022/09/22 07:28:32;;;;;;;2.55;2.35;;;;;;;13.34;74.65;99214.73;1593597;88;21028;-69
2022/09/22 07:31:13;;;;;;;3.62;2.90;;;;;;;13.36;74.25;99218.03;1594332;88;21606;-69
2022/09/22 07:33:42;;;;;;;2.72;2.52;;;;;;;13.32;74.00;99215.41;1594595;88;21052;-69
2022/09/22 07:36:18;;;;;;;2.92;2.62;;;;;;;13.34;73.87;99216.57;1593727;88;21160;-69
2022/09/22 07:38:51;;;;;;;2.37;2.20;;;;;;;13.36;73.63;99218.03;1604415;88;21053;-68
2022/09/22 07:41:21;;;;;;;3.20;2.80;;;;;;;13.33;73.43;99217.58;1594893;88;20977;-68
2022/09/22 07:43:52;;;;;;;2.10;2.00;;;;;;;13.34;73.44;99212.56;1593565;88;21106;-68
2022/09/22 07:46:19;;;;;;;2.00;1.90;;;;;;;13.38;73.60;99213.31;1604546;88;21053;-68
2022/09/22 07:48:46;;;;;;;4.20;2.35;;;;;;;13.43;73.48;99220.23;1604791;88;21894;-69
2022/09/22 07:51:20;;;;;;;3.95;2.02;;;;;;;13.48;73.45;99213.79;1595146;88;21188;-68
2022/09/22 07:54:01;;;;;;;2.65;2.35;;;;;;;13.50;73.23;99222.42;1601273;88;21139;-72
2022/09/22 07:56:26;;;;;;;6.00;2.30;;;;;;;13.52;73.34;99222.25;1606640;88;21026;-70
2022/09/22 07:58:52;;;;;;;3.83;2.40;;;;;;;13.59;73.47;99222.61;1596694;88;20988;-68
2022/09/22 08:01:22;;;;;;;2.98;2.37;;;;;;;13.66;73.41;99218.63;1597161;88;22018;-66
2022/09/22 08:03:49;;;;;;;2.45;2.22;;;;;;;13.70;73.17;99218.56;1596927;89;21050;-67
2022/09/22 08:06:18;;;;;;;2.47;2.12;;;;;;;13.74;72.94;99218.47;1593751;88;21423;-66
2022/09/22 08:08:54;;;;;;;6.10;2.55;;;;;;;13.79;72.88;99221.38;1600108;88;21027;-67
2022/09/22 08:11:27;;;;;;;2.70;2.47;;;;;;;13.85;72.59;99215.77;1597017;88;21028;-68
2022/09/22 08:14:00;;;;;;;3.05;2.72;;;;;;;13.95;72.50;99218.89;1593766;88;22114;-67
2022/09/22 08:16:30;;;;;;;3.02;2.77;;;;;;;14.13;72.29;99223.23;1594072;88;20974;-67
2022/09/22 08:18:59;;;;;;;2.58;2.37;;;;;;;14.26;71.86;99224.59;1599099;88;21486;-68
2022/09/22 08:21:28;;;;;;;3.10;2.33;;;;;;;14.35;71.50;99222.11;1610652;87;21008;-67
2022/09/22 08:23:54;;;;;;;5.92;2.70;;;;;;;14.44;71.21;99222.25;1625781;85;20971;-67
2022/09/22 08:26:21;;;;;;;3.05;2.35;;;;;;;14.57;71.01;99217.45;1668072;85;21243;-68
2022/09/22 08:28:55;;;;;;;2.70;2.47;;;;;;;14.68;70.55;99222.19;1662882;85;20975;-68
2022/09/22 08:31:23;;;;;;;3.55;3.08;;;;;;;14.74;70.12;99223.56;1606302;87;21531;-66
2022/09/22 08:33:50;;;;;;;2.92;2.72;;;;;;;14.84;69.80;99228.52;1629095;86;21010;-67
2022/09/22 08:36:17;;;;;;;2.65;2.40;;;;;;;14.89;69.47;99221.23;1606041;87;21038;-72
2022/09/22 08:38:47;;;;;;;2.52;2.30;;;;;;;14.89;69.03;99215.87;1609467;86;21182;-68
2022/09/22 08:41:20;;;;;;;2.92;2.25;;;;;;;14.86;68.65;99215.73;1607897;87;20917;-70
2022/09/22 08:43:55;;;;;;;2.80;2.35;;;;;;;14.88;68.43;99214.21;1621026;86;20959;-67
2022/09/22 08:46:32;;;;;;;2.10;2.00;;;;;;;15.04;68.22;99217.84;1621190;87;20974;-66
2022/09/22 08:52:36;;;;;;;2.42;1.65;;;;;;;15.70;66.49;99203.38;1620958;87;22118;-67
2022/09/22 08:55:03;;;;;;;2.50;2.30;;;;;;;16.13;65.14;99203.68;1606099;87;21553;-64
2022/09/22 08:57:55;;;;;;;2.33;2.12;;;;;;;16.28;64.46;99197.52;1616388;87;20984;-67
2022/09/22 09:00:22;;;;;;;2.50;2.30;;;;;;;16.30;63.89;99202.66;1613543;87;21575;-67
2022/09/22 09:03:15;;;;;;;2.15;2.00;;;;;;;16.31;63.71;99202.98;1616322;87;20960;-66
2022/09/22 09:06:15;;;;;;;3.35;1.90;;;;;;;16.28;63.26;99200.20;1616251;86;22014;-67
2022/09/22 09:09:07;;;;;;;1.90;1.80;;;;;;;16.23;63.01;99195.17;1611153;87;21597;-65
2022/09/22 09:12:12;;;;;;;2.45;2.25;;;;;;;16.21;62.75;99200.77;1617682;86;21042;-67
2022/09/22 09:15:07;;;;;;;2.25;2.05;;;;;;;16.23;62.39;99203.22;1611261;87;21054;-67
2022/09/22 09:17:36;;;;;;;2.52;2.33;;;;;;;16.27;62.21;99198.55;1587397;88;21098;-68
2022/09/22 09:20:30;;;;;;;1.87;1.77;;;;;;;16.51;62.25;99195.13;1616337;86;21236;-69
2022/09/22 09:22:56;;;;;;;2.67;2.00;;;;;;;16.78;61.79;99195.00;1603184;87;21455;-68
2022/09/22 09:25:39;;;;;;;1.60;1.22;;;;;;;17.10;61.36;99194.75;1600600;87;21465;-68
2022/09/22 09:28:19;;;;;;;3.30;2.02;;;;;;;17.48;60.56;99187.92;1616844;86;20924;-68
2022/09/22 09:30:53;;;;;;;1.75;1.60;;;;;;;17.84;58.95;99183.13;1602640;88;21546;-68
2022/09/22 09:33:55;;;;;;;3.25;1.90;;;;;;;17.95;57.93;99189.63;1592783;88;21173;-67
2022/09/22 09:36:22;;;;;;;2.62;2.30;;;;;;;17.97;58.14;99187.02;1578028;88;21081;-68
2022/09/22 09:38:52;;;;;;;2.77;2.58;;;;;;;17.96;57.83;99192.13;1593352;88;21587;-68
2022/09/22 09:41:23;;;;;;;2.25;2.12;;;;;;;17.93;57.88;99193.91;1625135;86;21580;-68
2022/09/22 09:43:51;;;;;;;2.00;1.80;;;;;;;17.85;57.36;99190.17;1642852;86;20987;-68
2022/09/22 09:46:44;;;;;;;2.62;2.30;;;;;;;17.64;57.53;99187.39;1613063;86;21253;-68
2022/09/22 09:49:14;;;;;;;2.20;2.10;;;;;;;17.52;58.20;99189.11;1584751;88;21071;-68
2022/09/22 09:51:48;;;;;;;2.15;1.85;;;;;;;17.41;58.59;99193.89;1611079;86;21031;-68
2022/09/22 09:54:16;;;;;;;3.02;2.00;;;;;;;17.29;58.53;99197.81;1590880;88;21156;-68
2022/09/22 09:57:12;;;;;;;2.33;1.98;;;;;;;17.14;58.60;99202.70;1593561;88;21070;-68
2022/09/22 10:02:39;;;;;;;2.33;2.12;;;;;;;16.82;58.34;99200.23;1593165;88;21047;-68
2022/09/22 10:05:18;;;;;;;2.10;1.90;;;;;;;16.68;58.56;99204.89;1592669;88;21009;-68
2022/09/22 10:07:47;;;;;;;2.55;2.35;;;;;;;16.50;58.95;99203.41;1593612;88;21058;-68
2022/09/22 10:10:36;;;;;;;1.90;1.80;;;;;;;16.30;59.51;99201.32;1593482;88;21037;-68
2022/09/22 10:13:08;;;;;;;2.40;2.10;;;;;;;16.26;60.14;99209.52;1593390;88;21177;-68
2022/09/22 10:15:38;;;;;;;2.30;2.17;;;;;;;16.28;60.65;99206.09;1593700;88;20946;-69
2022/09/22 10:18:27;;;;;;;2.60;2.10;;;;;;;16.31;60.53;99209.69;1593682;88;20945;-69
2022/09/22 10:21:14;;;;;;;1.85;1.75;;;;;;;16.33;60.27;99205.76;1593572;88;20973;-68
2022/09/22 10:23:43;;;;;;;1.40;1.30;;;;;;;16.42;59.59;99209.03;1593486;88;21064;-68
2022/09/22 10:26:30;;;;;;;3.92;1.22;;;;;;;16.64;59.17;99212.55;1593477;88;22509;-68
2022/09/22 10:29:20;;;;;;;;;;;;;;;16.73;58.54;99206.41;1595843;88;21455;-68
2022/09/22 10:32:06;;;;;;;2.67;1.07;;;;;;;16.77;57.94;99207.61;1595079;88;20095;-69
2022/09/22 10:34:39;;;;;;;1.15;1.12;;;;;;;16.90;57.58;99204.83;1593674;88;21014;-70
2022/09/22 10:37:09;;;;;;;2.37;1.45;;;;;;;17.08;57.58;99208.11;1593644;88;20937;-70
2022/09/22 10:39:49;;;;;;;1.92;1.00;;;;;;;17.14;57.21;99208.08;1593626;88;22119;-69
2022/09/22 10:42:42;;;;;;;1.42;1.02;;;;;;;17.16;57.38;99209.19;1593584;88;20997;-68
2022/09/22 10:45:17;;;;;;;1.42;1.20;;;;;;;17.23;57.11;99208.09;1591737;88;20980;-68
2022/09/22 10:47:57;;;;;;;1.30;1.20;;;;;;;17.25;56.65;99207.38;1589406;88;20946;-69
2022/09/22 10:51:03;;;;;;;3.45;1.50;;;;;;;17.26;56.67;99202.80;1593475;88;21089;-68
2022/09/22 10:53:58;;;;;;;1.75;1.65;;;;;;;17.33;57.02;99198.72;1593643;88;21911;-68
2022/09/22 10:56:52;;;;;;;1.17;1.17;;;;;;;17.47;56.79;99198.37;1593444;88;21026;-68
2022/09/22 10:59:45;;;;;;;2.00;1.02;;;;;;;17.57;56.30;99200.06;1593568;88;21536;-68
2022/09/22 11:02:48;;;;;;;3.87;0.80;;;;;;;17.60;55.46;99194.23;1593756;88;21084;-68
2022/09/22 11:12:18;;;;;;;3.08;1.45;;;;;;;17.50;54.39;99188.52;1593445;88;21017;-69
2022/09/22 11:15:04;;;;;;;1.50;1.40;;;;;;;17.42;54.76;99189.31;1576967;90;21611;-69
2022/09/22 11:18:06;;;;;;;1.85;1.72;;;;;;;17.37;54.83;99183.78;1575491;90;21114;-69
2022/09/22 11:20:44;;;;;;;2.98;1.95;;;;;;;17.32;54.62;99186.31;1609672;87;21018;-69
2022/09/22 11:23:34;;;;;;;3.52;2.85;;;;;;;17.26;54.63;99182.63;1601693;88;21184;-68
2022/09/22 11:26:09;;;;;;;2.85;2.50;;;;;;;17.22;54.51;99180.09;1614976;87;21552;-68
2022/09/22 11:29:15;;;;;;;2.87;2.40;;;;;;;17.28;54.66;99176.53;1602512;88;20953;-68
2022/09/22 11:32:09;;;;;;;2.92;2.20;;;;;;;17.27;54.60;99175.71;1591628;89;21610;-68
2022/09/22 11:35:08;;;;;;;2.75;2.55;;;;;;;17.28;54.63;99169.81;1559882;88;20974;-68
2022/09/22 11:37:55;;;;;;;4.05;2.55;;;;;;;17.25;54.68;99169.73;1584872;88;22073;-68
2022/09/22 11:40:45;;;;;;;4.15;1.72;;;;;;;17.27;55.06;99160.92;1602498;87;21157;-69
2022/09/22 11:43:37;;;;;;;2.47;1.77;;;;;;;17.36;55.49;99160.64;1602505;87;22306;-67
2022/09/22 11:46:30;;;;;;;1.80;1.50;;;;;;;17.44;55.29;99157.67;1603275;87;20985;-69
2022/09/22 11:49:37;;;;;;;3.05;1.57;;;;;;;17.50;54.88;99162.14;1597111;88;20981;-68
2022/09/22 11:52:54;;;;;;;2.37;2.20;;;;;;;17.48;54.74;99154.83;1593334;88;21200;-68
2022/09/22 11:55:38;;;;;;;1.85;1.75;;;;;;;17.40;54.81;99154.59;1594697;88;20985;-68
2022/09/22 11:58:18;;;;;;;2.47;1.47;;;;;;;17.41;55.01;99150.05;1593628;88;21480;-69
2022/09/22 12:01:03;;;;;;;4.97;1.35;;;;;;;17.35;54.77;99138.30;1589957;88;21531;-69
2022/09/22 12:03:43;;;;;;;1.57;1.20;;;;;;;17.30;54.74;99143.53;1586292;88;21064;-68
2022/09/22 12:06:25;;;;;;;1.50;1.40;;;;;;;17.27;54.72;99135.39;1594636;88;21122;-68
2022/09/22 12:09:05;;;;;;;1.40;1.30;;;;;;;17.27;54.60;99139.42;1593496;88;21066;-69
2022/09/22 12:11:34;;;;;;;2.08;1.40;;;;;;;17.34;54.81;99142.58;1590683;88;21393;-69
2022/09/22 12:14:02;;;;;;;1.10;1.00;;;;;;;17.42;54.80;99137.71;1593478;88;21532;-69
2022/09/22 12:16:44;;;;;;;1.92;1.72;;;;;;;17.52;54.75;99131.30;1586559;89;21073;-69
2022/09/22 12:19:20;;;;;;;1.32;1.22;;;;;;;17.60;54.10;99130.20;1593541;88;21198;-67